Time;durP1;ratioP1;P1;durP2;ratioP2;P2;SDS_P1;SDS_P2;PMS_P1;PMS_P2;Temp;Humidity;BMP_temperature;BMP_pressure;BME280_temperature;BME280_humidity;BME280_pressure;Samples;Min_cycle;Max_cycle;Signal;HPM_P1;HPM_P2
2022/08/13 00:02:16;;;;;;;3.88;1.92;;;;;;;;;;5050653;28;20115;-75
2022/08/13 00:04:53;;;;;;;2.58;2.22;;;;;;;;;;5069346;28;20039;-75
2022/08/13 00:07:19;;;;;;;4.35;2.20;;;;;;;;;;5070072;28;20090;-76
2022/08/13 00:09:44;;;;;;;3.42;2.15;;;;;;;;;;5069742;28;20025;-76
2022/08/13 00:15:19;;;;;;;3.35;2.00;;;;;;;;;;5068959;28;20031;-75
2022/08/13 00:17:49;;;;;;;2.72;2.10;;;;;;;;;;5069482;28;20386;-75
2022/08/13 00:20:19;;;;;;;4.32;2.30;;;;;;;;;;5069321;28;20021;-75
2022/08/13 00:22:45;;;;;;;2.63;2.10;;;;;;;;;;5069021;28;20544;-75
2022/08/13 00:25:11;;;;;;;2.50;2.13;;;;;;;;;;5050621;28;20036;-75
2022/08/13 00:27:37;;;;;;;3.10;2.15;;;;;;;;;;5051466;28;20249;-74
2022/08/13 00:30:07;;;;;;;4.57;2.40;;;;;;;;;;5068945;28;20079;-77
2022/08/13 00:32:33;;;;;;;2.85;2.22;;;;;;;;;;5053236;28;20032;-76
2022/08/13 00:35:00;;;;;;;5.32;2.50;;;;;;;;;;5068807;28;20070;-76
2022/08/13 00:37:27;;;;;;;2.90;2.20;;;;;;;;;;5068976;28;20087;-76
2022/08/13 00:39:53;;;;;;;2.80;2.10;;;;;;;;;;5069197;28;20139;-75
2022/08/13 00:42:25;;;;;;;4.00;2.00;;;;;;;;;;5069231;28;20096;-75
2022/08/13 00:44:50;;;;;;;3.50;2.25;;;;;;;;;;5060032;28;20024;-73
2022/08/13 00:50:00;;;;;;;3.15;2.22;;;;;;;;;;5073396;28;20444;-75
2022/08/13 00:52:30;;;;;;;9.07;2.30;;;;;;;;;;5068339;28;20048;-76
2022/08/13 00:55:01;;;;;;;3.63;2.55;;;;;;;;;;5068945;28;20024;-75
2022/08/13 00:57:30;;;;;;;3.50;2.38;;;;;;;;;;5050635;28;20108;-75
2022/08/13 00:59:56;;;;;;;5.68;2.13;;;;;;;;;;5068652;28;20066;-75
2022/08/13 01:02:23;;;;;;;3.20;2.03;;;;;;;;;;5071593;28;20032;-76
2022/08/13 01:04:48;;;;;;;3.22;2.17;;;;;;;;;;5077427;28;20032;-76
2022/08/13 01:07:15;;;;;;;6.82;2.50;;;;;;;;;;5074262;28;20409;-76
2022/08/13 01:09:40;;;;;;;3.00;2.13;;;;;;;;;;5070301;28;20028;-75
2022/08/13 01:12:08;;;;;;;3.45;2.42;;;;;;;;;;5075171;28;20050;-76
2022/08/13 01:14:34;;;;;;;2.95;2.35;;;;;;;;;;5073833;28;20099;-76
2022/08/13 01:17:01;;;;;;;2.65;2.20;;;;;;;;;;5073400;28;20032;-69
2022/08/13 01:19:26;;;;;;;2.30;2.05;;;;;;;;;;5071713;28;20036;-70
2022/08/13 01:21:53;;;;;;;4.70;2.20;;;;;;;;;;5075712;28;20029;-69
2022/08/13 01:24:20;;;;;;;5.72;2.60;;;;;;;;;;5079144;28;20269;-68
2022/08/13 01:26:48;;;;;;;3.30;2.17;;;;;;;;;;5072047;28;20453;-69
2022/08/13 01:29:16;;;;;;;3.75;2.40;;;;;;;;;;5072583;28;20413;-69
2022/08/13 01:31:42;;;;;;;2.80;2.28;;;;;;;;;;5071925;28;20086;-68
2022/08/13 01:34:08;;;;;;;3.97;2.20;;;;;;;;;;5072187;28;20040;-68
2022/08/13 01:36:34;;;;;;;4.72;2.20;;;;;;;;;;5072177;28;20473;-68
2022/08/13 01:39:04;;;;;;;3.83;2.40;;;;;;;;;;5071274;28;20054;-69
2022/08/13 01:41:29;;;;;;;4.45;2.38;;;;;;;;;;5072222;28;20032;-68
2022/08/13 01:44:04;;;;;;;4.93;2.20;;;;;;;;;;5071447;28;20038;-68
2022/08/13 01:50:28;;;;;;;2.42;2.08;;;;;;;;;;5072187;28;20387;-69
2022/08/13 01:51:59;;;;;;;4.30;2.05;;;;;;;;;;5071905;28;20043;-68
2022/08/13 01:54:24;;;;;;;2.70;2.15;;;;;;;;;;5071899;28;20493;-68
2022/08/13 01:56:50;;;;;;;6.22;2.78;;;;;;;;;;5054036;28;20032;-69
2022/08/13 01:59:15;;;;;;;3.35;2.40;;;;;;;;;;5071639;28;20033;-68
2022/08/13 02:01:42;;;;;;;5.23;2.40;;;;;;;;;;5071012;28;20040;-68
2022/08/13 02:04:07;;;;;;;2.78;2.20;;;;;;;;;;5072043;28;20765;-69
2022/08/13 02:06:34;;;;;;;4.15;2.30;;;;;;;;;;5071390;28;20036;-69
2022/08/13 02:09:03;;;;;;;5.43;2.30;;;;;;;;;;5071119;28;20031;-68
2022/08/13 02:11:32;;;;;;;3.03;2.15;;;;;;;;;;5071584;28;20029;-67
2022/08/13 02:14:00;;;;;;;4.38;2.03;;;;;;;;;;5071100;28;20491;-68
2022/08/13 02:16:34;;;;;;;4.75;2.33;;;;;;;;;;5071166;28;20048;-69
2022/08/13 02:19:00;;;;;;;;;;;;;;;;;;5071560;28;20025;-68
2022/08/13 02:21:30;;;;;;;3.22;2.42;;;;;;;;;;5071179;28;19912;-68
2022/08/13 02:23:56;;;;;;;2.42;2.17;;;;;;;;;;5070147;28;20055;-68
2022/08/13 02:26:23;;;;;;;3.53;2.72;;;;;;;;;;5070789;28;20033;-69
2022/08/13 02:28:54;;;;;;;3.63;2.40;;;;;;;;;;5073247;28;20032;-69
2022/08/13 02:31:21;;;;;;;4.65;2.38;;;;;;;;;;5054720;28;20039;-69
2022/08/13 02:33:46;;;;;;;3.72;2.33;;;;;;;;;;5072168;28;20020;-69
2022/08/13 02:36:12;;;;;;;5.13;2.42;;;;;;;;;;5076675;28;20389;-68
2022/08/13 02:38:37;;;;;;;4.85;2.50;;;;;;;;;;5080280;28;20039;-68
2022/08/13 02:43:47;;;;;;;3.63;2.25;;;;;;;;;;5071269;28;20086;-69
2022/08/13 02:46:15;;;;;;;2.63;2.28;;;;;;;;;;5071562;28;20795;-68
2022/08/13 02:48:41;;;;;;;4.82;2.63;;;;;;;;;;5072326;28;20043;-69
2022/08/13 02:51:06;;;;;;;4.22;2.80;;;;;;;;;;5077262;28;20040;-76
2022/08/13 02:53:32;;;;;;;5.65;2.50;;;;;;;;;;5077234;28;20478;-76
2022/08/13 02:55:59;;;;;;;3.15;2.35;;;;;;;;;;5080552;28;20017;-76
2022/08/13 02:58:25;;;;;;;7.45;2.70;;;;;;;;;;5067023;28;20031;-76
2022/08/13 03:00:53;;;;;;;4.25;2.33;;;;;;;;;;5081304;28;20024;-77
2022/08/13 03:03:19;;;;;;;3.97;2.42;;;;;;;;;;5074672;28;20076;-76
2022/08/13 03:05:45;;;;;;;6.22;2.58;;;;;;;;;;5080091;28;20060;-75
2022/08/13 03:08:11;;;;;;;4.50;2.42;;;;;;;;;;5077945;28;20497;-77
2022/08/13 03:10:39;;;;;;;5.75;2.40;;;;;;;;;;5058986;28;20481;-76
2022/08/13 03:13:16;;;;;;;4.70;2.75;;;;;;;;;;5071265;28;20034;-76
2022/08/13 03:15:44;;;;;;;6.30;2.72;;;;;;;;;;5073894;28;20111;-78
2022/08/13 03:18:09;;;;;;;3.10;2.40;;;;;;;;;;5074287;28;20016;-76
2022/08/13 03:20:35;;;;;;;5.80;2.70;;;;;;;;;;5073829;28;20070;-77
2022/08/13 03:23:01;;;;;;;4.55;2.70;;;;;;;;;;5074767;28;20537;-77
2022/08/13 03:25:29;;;;;;;5.38;2.70;;;;;;;;;;5058180;28;20078;-76
2022/08/13 03:27:54;;;;;;;4.25;2.58;;;;;;;;;;5056065;28;20017;-76
2022/08/13 03:30:22;;;;;;;3.00;2.42;;;;;;;;;;5074182;28;20024;-77
2022/08/13 03:32:50;;;;;;;4.60;2.78;;;;;;;;;;5071465;28;20477;-76
2022/08/13 03:35:19;;;;;;;2.90;2.47;;;;;;;;;;5075745;28;20082;-76
2022/08/13 03:37:53;;;;;;;5.00;2.60;;;;;;;;;;5073754;28;20470;-76
2022/08/13 03:40:19;;;;;;;5.60;2.60;;;;;;;;;;5075359;28;20036;-76
2022/08/13 03:42:48;;;;;;;3.40;2.60;;;;;;;;;;5056321;28;20099;-76
2022/08/13 03:45:15;;;;;;;5.90;2.70;;;;;;;;;;5076759;28;20025;-75
2022/08/13 03:47:42;;;;;;;3.38;2.42;;;;;;;;;;5061473;28;20055;-75
2022/08/13 03:50:09;;;;;;;4.72;2.60;;;;;;;;;;5075167;28;20409;-75
2022/08/13 03:52:36;;;;;;;4.20;2.80;;;;;;;;;;5072669;28;20375;-75
2022/08/13 03:55:04;;;;;;;3.58;2.47;;;;;;;;;;5073270;28;20497;-75
2022/08/13 03:57:30;;;;;;;3.88;2.58;;;;;;;;;;5085211;28;20024;-75
2022/08/13 03:59:57;;;;;;;4.85;2.50;;;;;;;;;;5093521;28;20024;-75
2022/08/13 04:02:22;;;;;;;3.67;2.60;;;;;;;;;;5075402;28;20027;-75
2022/08/13 04:04:48;;;;;;;5.45;3.10;;;;;;;;;;5092634;28;20020;-76
2022/08/13 04:07:19;;;;;;;3.00;2.67;;;;;;;;;;5075212;28;20016;-75
2022/08/13 04:09:45;;;;;;;3.65;2.67;;;;;;;;;;5093668;28;20016;-75
2022/08/13 04:12:12;;;;;;;8.68;2.78;;;;;;;;;;5093246;28;20016;-75
2022/08/13 04:14:41;;;;;;;4.10;2.58;;;;;;;;;;5082979;28;20024;-74
2022/08/13 04:17:10;;;;;;;6.72;2.58;;;;;;;;;;5075736;28;20508;-76
2022/08/13 04:19:41;;;;;;;2.95;2.50;;;;;;;;;;5081160;28;20028;-75
2022/08/13 04:22:07;;;;;;;5.97;2.47;;;;;;;;;;5061665;28;20077;-77
2022/08/13 04:24:33;;;;;;;3.22;2.65;;;;;;;;;;5071989;28;20124;-75
2022/08/13 04:26:59;;;;;;;3.90;2.60;;;;;;;;;;5073699;28;20111;-75
2022/08/13 04:29:25;;;;;;;2.97;2.58;;;;;;;;;;5072603;28;20028;-76
2022/08/13 04:31:50;;;;;;;5.93;2.90;;;;;;;;;;5072468;28;20028;-75
2022/08/13 04:34:24;;;;;;;5.47;2.60;;;;;;;;;;5075521;28;20016;-75
2022/08/13 04:36:50;;;;;;;3.42;2.65;;;;;;;;;;5073451;28;20028;-75
2022/08/13 04:39:15;;;;;;;5.30;2.67;;;;;;;;;;5072830;28;20482;-76
2022/08/13 04:41:40;;;;;;;3.75;2.70;;;;;;;;;;5072308;28;20020;-76
2022/08/13 04:44:06;;;;;;;4.20;2.40;;;;;;;;;;5072902;28;20104;-76
2022/08/13 04:46:31;;;;;;;7.97;3.00;;;;;;;;;;5073494;28;20528;-75
2022/08/13 04:48:56;;;;;;;4.22;2.58;;;;;;;;;;5076814;28;20367;-76
2022/08/13 04:51:23;;;;;;;7.63;2.80;;;;;;;;;;5076825;28;20048;-76
2022/08/13 04:53:48;;;;;;;4.93;2.72;;;;;;;;;;5076254;28;20646;-76
2022/08/13 04:56:14;;;;;;;3.60;2.70;;;;;;;;;;5076713;28;20028;-75
2022/08/13 04:58:39;;;;;;;4.20;2.58;;;;;;;;;;5075992;28;20028;-75
2022/08/13 05:01:06;;;;;;;5.50;2.60;;;;;;;;;;5076305;28;20020;-75
2022/08/13 05:03:31;;;;;;;3.00;2.60;;;;;;;;;;5078128;28;20024;-75
2022/08/13 05:05:57;;;;;;;5.22;2.95;;;;;;;;;;5076443;28;20107;-76
2022/08/13 05:08:22;;;;;;;4.05;2.60;;;;;;;;;;5076210;28;20086;-75
2022/08/13 05:10:50;;;;;;;3.83;2.97;;;;;;;;;;5076350;28;20071;-75
2022/08/13 05:13:30;;;;;;;3.22;2.55;;;;;;;;;;5076406;28;20029;-75
2022/08/13 05:15:57;;;;;;;11.10;2.80;;;;;;;;;;5075927;28;20393;-75
2022/08/13 05:18:24;;;;;;;3.40;3.10;;;;;;;;;;5057892;28;20029;-75
2022/08/13 05:20:52;;;;;;;3.10;2.80;;;;;;;;;;5075184;28;20021;-76
2022/08/13 05:23:18;;;;;;;3.35;2.95;;;;;;;;;;5075965;28;20017;-74
2022/08/13 05:25:43;;;;;;;4.05;2.80;;;;;;;;;;5074410;28;20062;-75
2022/08/13 05:28:09;;;;;;;2.78;2.47;;;;;;;;;;5058179;28;20028;-75
2022/08/13 05:30:38;;;;;;;3.08;2.60;;;;;;;;;;5076773;28;20394;-75
2022/08/13 05:33:13;;;;;;;4.25;2.90;;;;;;;;;;5075889;28;20429;-75
2022/08/13 05:35:39;;;;;;;3.13;2.72;;;;;;;;;;5058534;28;20055;-76
2022/08/13 05:38:04;;;;;;;3.83;2.72;;;;;;;;;;5075941;28;20017;-75
2022/08/13 05:40:30;;;;;;;4.13;3.00;;;;;;;;;;5075829;28;20032;-76
2022/08/13 05:42:59;;;;;;;4.32;3.03;;;;;;;;;;5088287;28;20268;-76
2022/08/13 05:45:25;;;;;;;3.53;2.97;;;;;;;;;;5092903;28;20039;-76
2022/08/13 05:47:51;;;;;;;3.20;2.90;;;;;;;;;;5075334;28;20401;-75
2022/08/13 05:50:16;;;;;;;4.00;3.05;;;;;;;;;;5075971;28;20028;-76
2022/08/13 05:52:42;;;;;;;3.40;2.70;;;;;;;;;;5075223;28;20024;-75
2022/08/13 05:55:10;;;;;;;4.90;3.03;;;;;;;;;;5075405;28;20020;-76
2022/08/13 05:57:35;;;;;;;3.25;2.78;;;;;;;;;;5074952;28;20028;-76
2022/08/13 06:05:29;;;;;;;6.82;2.90;;;;;;;;;;5075698;28;20070;-76
2022/08/13 06:07:56;;;;;;;4.07;3.20;;;;;;;;;;5075306;28;20048;-75
2022/08/13 06:10:24;;;;;;;4.40;3.00;;;;;;;;;;5075601;28;20020;-75
2022/08/13 06:12:49;;;;;;;3.35;2.70;;;;;;;;;;5074565;28;20094;-75
2022/08/13 06:15:14;;;;;;;3.63;3.00;;;;;;;;;;5074857;28;20024;-75
2022/08/13 06:17:40;;;;;;;4.45;2.75;;;;;;;;;;5060580;28;20261;-76
2022/08/13 06:20:06;;;;;;;4.85;3.30;;;;;;;;;;5058640;28;20111;-76
2022/08/13 06:22:37;;;;;;;7.40;3.60;;;;;;;;;;5074047;28;20104;-76
2022/08/13 06:25:05;;;;;;;5.43;3.00;;;;;;;;;;5075329;28;20044;-76
2022/08/13 06:27:31;;;;;;;5.05;3.05;;;;;;;;;;5074974;28;20028;-75
2022/08/13 06:29:58;;;;;;;5.15;2.85;;;;;;;;;;5056404;28;20024;-76
2022/08/13 06:32:24;;;;;;;6.38;2.90;;;;;;;;;;5078410;28;20420;-75
2022/08/13 06:34:50;;;;;;;12.85;3.00;;;;;;;;;;5058666;28;20057;-75
2022/08/13 06:37:16;;;;;;;4.82;3.17;;;;;;;;;;5074522;28;20066;-75
2022/08/13 06:39:44;;;;;;;3.88;3.00;;;;;;;;;;5057107;28;20025;-76
2022/08/13 06:42:09;;;;;;;6.47;2.83;;;;;;;;;;5075329;28;20039;-75
2022/08/13 06:44:34;;;;;;;4.50;2.90;;;;;;;;;;5073901;28;20017;-76
2022/08/13 06:47:03;;;;;;;3.65;2.88;;;;;;;;;;5074716;28;20036;-77
2022/08/13 06:49:28;;;;;;;6.00;3.00;;;;;;;;;;5056298;28;20032;-76
2022/08/13 06:51:55;;;;;;;8.40;2.83;;;;;;;;;;5056543;28;20020;-76
2022/08/13 06:54:21;;;;;;;3.75;2.90;;;;;;;;;;5074373;28;20028;-75
2022/08/13 06:56:46;;;;;;;4.88;2.75;;;;;;;;;;5074450;28;20450;-75
2022/08/13 06:59:13;;;;;;;6.53;3.15;;;;;;;;;;5079991;28;20036;-76
2022/08/13 07:01:40;;;;;;;5.30;3.22;;;;;;;;;;5094583;28;20428;-75
2022/08/13 07:04:13;;;;;;;4.78;3.35;;;;;;;;;;5084497;28;20028;-75
2022/08/13 07:06:40;;;;;;;6.38;3.30;;;;;;;;;;5074118;28;20500;-75
2022/08/13 07:09:05;;;;;;;5.57;3.30;;;;;;;;;;5074094;28;20029;-75
2022/08/13 07:11:32;;;;;;;4.53;3.08;;;;;;;;;;5075524;28;20481;-76
2022/08/13 07:14:00;;;;;;;4.40;2.95;;;;;;;;;;5078617;28;20063;-76
2022/08/13 07:16:30;;;;;;;11.38;3.10;;;;;;;;;;5059851;28;20059;-76
2022/08/13 07:18:58;;;;;;;4.85;3.08;;;;;;;;;;5074648;28;20448;-75
2022/08/13 07:21:26;;;;;;;6.28;3.05;;;;;;;;;;5074033;28;20029;-76
2022/08/13 07:23:53;;;;;;;7.57;3.22;;;;;;;;;;5074404;28;20393;-76
2022/08/13 07:26:20;;;;;;;6.35;3.00;;;;;;;;;;5073294;28;20032;-77
2022/08/13 07:28:46;;;;;;;11.02;3.28;;;;;;;;;;5056047;28;20020;-76
2022/08/13 07:31:13;;;;;;;5.72;3.20;;;;;;;;;;5076831;28;20021;-76
2022/08/13 07:33:42;;;;;;;9.52;3.10;;;;;;;;;;5072712;28;20032;-75
2022/08/13 07:36:12;;;;;;;5.32;2.97;;;;;;;;;;5055704;28;20090;-76
2022/08/13 07:38:38;;;;;;;6.85;3.00;;;;;;;;;;5055585;28;20035;-76
2022/08/13 07:41:04;;;;;;;6.43;2.90;;;;;;;;;;5073836;28;20086;-75
2022/08/13 07:43:33;;;;;;;9.48;3.00;;;;;;;;;;5073254;28;20024;-75
2022/08/13 07:46:05;;;;;;;5.35;3.50;;;;;;;;;;5073339;28;20462;-76
2022/08/13 07:48:31;;;;;;;7.22;3.25;;;;;;;;;;5073020;28;20024;-76
2022/08/13 07:50:59;;;;;;;5.30;2.90;;;;;;;;;;5076818;28;20028;-76
2022/08/13 07:53:24;;;;;;;9.45;3.20;;;;;;;;;;5073482;28;20444;-75
2022/08/13 07:55:51;;;;;;;5.68;2.97;;;;;;;;;;5073623;28;20028;-75
2022/08/13 07:58:16;;;;;;;6.75;3.22;;;;;;;;;;5073288;28;20393;-75
2022/08/13 08:00:45;;;;;;;4.65;3.40;;;;;;;;;;5073056;28;20025;-75
2022/08/13 08:03:12;;;;;;;5.68;2.88;;;;;;;;;;5072764;28;20058;-75
2022/08/13 08:05:41;;;;;;;9.65;3.65;;;;;;;;;;5055310;28;20052;-77
2022/08/13 08:08:08;;;;;;;4.68;3.35;;;;;;;;;;5073099;28;20020;-75
2022/08/13 08:10:38;;;;;;;6.40;2.92;;;;;;;;;;5072454;28;20033;-76
2022/08/13 08:13:03;;;;;;;5.47;3.35;;;;;;;;;;5075775;28;20016;-75
2022/08/13 08:15:28;;;;;;;6.17;3.30;;;;;;;;;;5074292;28;20493;-74
2022/08/13 08:17:54;;;;;;;4.68;3.40;;;;;;;;;;5072860;28;20666;-74
2022/08/13 08:20:21;;;;;;;4.67;3.13;;;;;;;;;;5072394;28;20028;-75
2022/08/13 08:22:49;;;;;;;8.55;3.38;;;;;;;;;;5072271;28;20265;-75
2022/08/13 08:25:19;;;;;;;5.53;3.58;;;;;;;;;;5072874;28;20398;-75
2022/08/13 08:27:44;;;;;;;4.07;3.08;;;;;;;;;;5073881;28;20024;-74
2022/08/13 08:30:17;;;;;;;5.65;3.20;;;;;;;;;;5072407;28;20392;-75
2022/08/13 08:32:46;;;;;;;8.20;3.37;;;;;;;;;;5070657;28;20032;-76
2022/08/13 08:35:12;;;;;;;5.72;3.38;;;;;;;;;;5092341;28;20162;-75
2022/08/13 08:43:11;;;;;;;6.20;3.47;;;;;;;;;;5072951;28;20036;-74
2022/08/13 08:45:38;;;;;;;8.10;3.72;;;;;;;;;;5057550;28;20119;-75
2022/08/13 08:48:03;;;;;;;7.00;3.38;;;;;;;;;;5072460;28;20050;-75
2022/08/13 08:50:28;;;;;;;5.30;3.58;;;;;;;;;;5072881;28;20023;-76
2022/08/13 08:55:42;;;;;;;10.52;3.90;;;;;;;;;;5072708;28;20167;-76
2022/08/13 08:58:09;;;;;;;6.07;3.53;;;;;;;;;;5054528;28;20031;-75
2022/08/13 09:00:36;;;;;;;11.40;3.45;;;;;;;;;;5072025;28;20036;-75
2022/08/13 09:03:02;;;;;;;9.15;3.67;;;;;;;;;;5072900;28;20020;-76
2022/08/13 09:05:28;;;;;;;11.98;4.53;;;;;;;;;;5076001;28;20028;-76
2022/08/13 09:07:54;;;;;;;8.98;3.75;;;;;;;;;;5072854;28;20020;-75
2022/08/13 09:10:21;;;;;;;7.70;3.72;;;;;;;;;;5075882;28;20032;-75
2022/08/13 09:12:50;;;;;;;7.43;3.75;;;;;;;;;;5072253;28;20430;-76
2022/08/13 09:15:24;;;;;;;14.15;3.63;;;;;;;;;;5054778;28;20029;-76
2022/08/13 09:17:50;;;;;;;;;;;;;;;;;;5074873;28;20486;-75
2022/08/13 09:20:20;;;;;;;8.95;3.70;;;;;;;;;;5089372;28;19912;-74
2022/08/13 09:22:47;;;;;;;7.18;3.53;;;;;;;;;;5092748;28;20035;-74
2022/08/13 09:25:18;;;;;;;11.00;3.25;;;;;;;;;;5092363;28;20500;-75
2022/08/13 09:27:44;;;;;;;7.03;3.65;;;;;;;;;;5078264;28;20028;-76
2022/08/13 09:30:10;;;;;;;18.05;3.60;;;;;;;;;;5054054;28;20397;-76
2022/08/13 09:32:39;;;;;;;10.02;3.40;;;;;;;;;;5073064;28;20021;-74
2022/08/13 09:35:06;;;;;;;10.05;3.63;;;;;;;;;;5076229;28;20107;-75
2022/08/13 09:37:32;;;;;;;4.45;3.70;;;;;;;;;;5057583;28;20032;-75
2022/08/13 09:40:07;;;;;;;7.93;3.70;;;;;;;;;;5076255;28;20024;-75
2022/08/13 09:42:39;;;;;;;9.77;3.80;;;;;;;;;;5091385;28;20032;-74
2022/08/13 09:45:05;;;;;;;7.60;3.60;;;;;;;;;;5076956;28;20034;-76
2022/08/13 09:47:31;;;;;;;11.88;3.97;;;;;;;;;;5077018;28;20025;-76
2022/08/13 09:49:56;;;;;;;6.45;3.63;;;;;;;;;;5075058;28;20032;-75
2022/08/13 09:52:22;;;;;;;5.00;3.40;;;;;;;;;;5075197;28;20024;-76
2022/08/13 09:54:48;;;;;;;5.25;3.45;;;;;;;;;;5086949;28;20036;-75
2022/08/13 09:57:14;;;;;;;8.25;4.10;;;;;;;;;;5077441;28;20473;-74
2022/08/13 09:59:39;;;;;;;10.33;3.40;;;;;;;;;;5092031;28;20039;-75
2022/08/13 10:02:09;;;;;;;4.30;3.50;;;;;;;;;;5095625;28;20746;-75
2022/08/13 10:04:37;;;;;;;7.60;3.60;;;;;;;;;;5071651;28;20024;-75
2022/08/13 10:07:02;;;;;;;5.57;3.67;;;;;;;;;;5095761;28;20051;-74
2022/08/13 10:09:28;;;;;;;8.63;3.60;;;;;;;;;;5086284;28;20489;-75
2022/08/13 10:11:53;;;;;;;6.55;3.88;;;;;;;;;;5057156;28;20031;-75
2022/08/13 10:14:19;;;;;;;8.57;4.07;;;;;;;;;;5070454;28;20016;-75
2022/08/13 10:16:44;;;;;;;6.97;4.00;;;;;;;;;;5075025;28;20032;-75
2022/08/13 10:19:10;;;;;;;5.88;3.60;;;;;;;;;;5077413;28;20024;-75
2022/08/13 10:21:35;;;;;;;7.27;4.30;;;;;;;;;;5074657;28;20070;-74
2022/08/13 10:24:00;;;;;;;9.38;3.92;;;;;;;;;;5074868;28;20258;-75
2022/08/13 10:26:26;;;;;;;8.20;4.32;;;;;;;;;;5075440;28;20485;-76
2022/08/13 10:28:51;;;;;;;10.27;4.37;;;;;;;;;;5075835;28;20063;-75
2022/08/13 10:31:19;;;;;;;5.47;4.15;;;;;;;;;;5057594;28;20331;-75
2022/08/13 10:33:44;;;;;;;7.47;4.45;;;;;;;;;;5074821;28;20533;-76
2022/08/13 10:36:10;;;;;;;13.57;4.63;;;;;;;;;;5077945;28;20123;-75
2022/08/13 10:38:35;;;;;;;5.38;4.15;;;;;;;;;;5074903;28;20086;-75
2022/08/13 10:41:07;;;;;;;7.20;4.40;;;;;;;;;;5074893;28;20123;-74
2022/08/13 10:43:33;;;;;;;5.03;4.05;;;;;;;;;;5074572;28;20482;-76
2022/08/13 10:45:59;;;;;;;10.25;4.40;;;;;;;;;;5073544;28;20029;-76
2022/08/13 10:48:25;;;;;;;8.75;4.93;;;;;;;;;;5056613;28;20044;-75
2022/08/13 10:50:52;;;;;;;7.32;4.50;;;;;;;;;;5077351;28;20028;-75
2022/08/13 10:56:03;;;;;;;6.22;4.82;;;;;;;;;;5090823;28;20046;-76
2022/08/13 10:58:32;;;;;;;6.65;4.72;;;;;;;;;;5076354;28;20035;-75
2022/08/13 11:01:03;;;;;;;8.52;4.68;;;;;;;;;;5089977;28;20582;-75
2022/08/13 11:03:30;;;;;;;7.38;5.47;;;;;;;;;;5074339;28;20024;-77
2022/08/13 11:05:58;;;;;;;9.68;4.43;;;;;;;;;;5066162;28;20028;-74
2022/08/13 11:08:24;;;;;;;7.88;5.35;;;;;;;;;;5074778;28;20028;-75
2022/08/13 11:10:50;;;;;;;5.82;4.47;;;;;;;;;;5094366;28;20028;-76
2022/08/13 11:13:15;;;;;;;5.72;4.93;;;;;;;;;;5094145;28;20028;-75
2022/08/13 11:15:40;;;;;;;5.70;4.60;;;;;;;;;;5088421;28;20024;-76
2022/08/13 11:18:08;;;;;;;6.40;5.00;;;;;;;;;;5087829;28;20276;-76
2022/08/13 11:20:40;;;;;;;5.57;4.50;;;;;;;;;;5069153;28;20289;-76
2022/08/13 11:23:06;;;;;;;9.68;5.20;;;;;;;;;;5094038;28;20023;-76
2022/08/13 11:25:31;;;;;;;8.77;4.90;;;;;;;;;;5093958;28;20492;-76
2022/08/13 11:27:57;;;;;;;5.90;4.47;;;;;;;;;;5094178;28;20039;-75
2022/08/13 11:30:22;;;;;;;8.60;5.50;;;;;;;;;;5090835;28;20285;-76
2022/08/13 11:32:47;;;;;;;9.20;4.77;;;;;;;;;;5073564;28;20269;-75
2022/08/13 11:35:12;;;;;;;8.43;5.67;;;;;;;;;;5076731;28;20722;-76
2022/08/13 11:37:38;;;;;;;5.93;4.80;;;;;;;;;;5073345;28;20257;-74
2022/08/13 11:40:04;;;;;;;6.22;5.25;;;;;;;;;;5073326;28;20707;-75
2022/08/13 11:42:30;;;;;;;11.35;5.55;;;;;;;;;;5073188;28;20028;-75
2022/08/13 11:44:55;;;;;;;8.10;5.20;;;;;;;;;;5076341;28;20035;-75
2022/08/13 11:47:21;;;;;;;7.40;5.60;;;;;;;;;;5075860;28;20043;-75
2022/08/13 11:49:46;;;;;;;10.77;6.10;;;;;;;;;;5073025;28;20020;-76
2022/08/13 11:52:11;;;;;;;5.75;5.15;;;;;;;;;;5076127;28;20439;-76
2022/08/13 11:54:36;;;;;;;6.80;5.30;;;;;;;;;;5073193;28;20565;-75
2022/08/13 11:57:06;;;;;;;7.17;5.53;;;;;;;;;;5072184;28;20754;-74
2022/08/13 11:59:31;;;;;;;8.50;6.25;;;;;;;;;;5055247;28;20280;-75
2022/08/13 12:01:57;;;;;;;11.75;6.38;;;;;;;;;;5084670;28;20408;-75
2022/08/13 12:04:22;;;;;;;8.82;6.15;;;;;;;;;;5072785;28;20027;-75
2022/08/13 12:06:47;;;;;;;10.18;6.28;;;;;;;;;;5075958;28;20028;-75
2022/08/13 12:09:12;;;;;;;10.05;6.63;;;;;;;;;;5073343;28;20384;-77
2022/08/13 12:11:38;;;;;;;9.53;6.43;;;;;;;;;;5086603;28;20031;-76
2022/08/13 12:14:03;;;;;;;8.20;6.43;;;;;;;;;;5087166;28;20261;-76
2022/08/13 12:16:29;;;;;;;10.82;6.72;;;;;;;;;;5078350;28;20024;-75
2022/08/13 12:18:54;;;;;;;9.20;6.55;;;;;;;;;;5093092;28;20019;-75
2022/08/13 12:21:20;;;;;;;8.63;6.40;;;;;;;;;;5077999;28;20435;-75
2022/08/13 12:23:45;;;;;;;7.60;6.80;;;;;;;;;;5075887;28;20481;-75
2022/08/13 12:26:10;;;;;;;9.63;6.60;;;;;;;;;;5072951;28;20622;-76
2022/08/13 12:28:35;;;;;;;9.83;7.00;;;;;;;;;;5072730;28;20032;-76
2022/08/13 12:31:04;;;;;;;10.05;6.57;;;;;;;;;;5055288;28;20789;-75
2022/08/13 12:33:32;;;;;;;10.20;6.50;;;;;;;;;;5073276;28;20476;-74
2022/08/13 12:36:01;;;;;;;8.73;7.00;;;;;;;;;;5076050;28;20457;-75
2022/08/13 12:38:26;;;;;;;11.15;6.10;;;;;;;;;;5084444;28;20035;-75
2022/08/13 12:40:52;;;;;;;8.20;6.05;;;;;;;;;;5092935;28;20024;-76
2022/08/13 12:43:17;;;;;;;7.97;6.38;;;;;;;;;;5079913;28;20067;-75
2022/08/13 12:45:43;;;;;;;8.77;6.28;;;;;;;;;;5072200;28;20056;-76
2022/08/13 12:48:10;;;;;;;9.75;6.25;;;;;;;;;;5072627;28;20039;-76
2022/08/13 12:50:37;;;;;;;7.85;6.00;;;;;;;;;;5073715;28;20021;-76
2022/08/13 12:53:05;;;;;;;12.63;5.97;;;;;;;;;;5072049;28;20124;-77
2022/08/13 12:55:30;;;;;;;8.80;6.20;;;;;;;;;;5078862;28;20481;-77
2022/08/13 12:57:58;;;;;;;9.68;6.50;;;;;;;;;;5072727;28;20028;-76
2022/08/13 13:00:24;;;;;;;9.30;6.07;;;;;;;;;;5072139;28;20044;-75
2022/08/13 13:02:49;;;;;;;8.40;6.72;;;;;;;;;;5054617;28;20485;-78
2022/08/13 13:05:15;;;;;;;9.77;5.90;;;;;;;;;;5072481;28;20035;-76
2022/08/13 13:07:42;;;;;;;7.82;5.95;;;;;;;;;;5080882;28;20277;-75
2022/08/13 13:10:09;;;;;;;7.82;6.22;;;;;;;;;;5080178;28;20401;-76
2022/08/13 13:12:34;;;;;;;8.27;6.43;;;;;;;;;;5087937;28;20024;-74
2022/08/13 13:14:59;;;;;;;7.23;6.20;;;;;;;;;;5082691;28;20426;-75
2022/08/13 13:17:25;;;;;;;8.13;6.23;;;;;;;;;;5076594;28;20344;-76
2022/08/13 13:19:50;;;;;;;9.55;6.18;;;;;;;;;;5091931;28;20280;-74
2022/08/13 13:22:15;;;;;;;7.65;5.95;;;;;;;;;;5096950;28;20024;-75
2022/08/13 13:24:40;;;;;;;8.63;6.20;;;;;;;;;;5067420;28;20485;-76
2022/08/13 13:27:07;;;;;;;8.73;6.20;;;;;;;;;;5091173;28;20256;-76
2022/08/13 13:29:36;;;;;;;10.55;6.20;;;;;;;;;;5096239;28;20066;-76
2022/08/13 13:32:02;;;;;;;15.18;6.18;;;;;;;;;;5096164;28;20027;-75
2022/08/13 13:34:28;;;;;;;7.47;5.55;;;;;;;;;;5092361;28;20036;-75
2022/08/13 13:36:53;;;;;;;8.63;6.13;;;;;;;;;;5082463;28;20035;-77
2022/08/13 13:39:19;;;;;;;8.73;5.73;;;;;;;;;;5096070;28;20046;-76
2022/08/13 13:41:44;;;;;;;8.93;5.60;;;;;;;;;;5087053;28;20037;-76
2022/08/13 13:44:09;;;;;;;9.37;5.33;;;;;;;;;;5091001;28;20123;-75
2022/08/13 13:46:35;;;;;;;5.43;4.93;;;;;;;;;;5094233;28;20300;-74
2022/08/13 13:49:00;;;;;;;10.23;5.35;;;;;;;;;;5095863;28;20028;-75
2022/08/13 13:51:26;;;;;;;6.57;5.65;;;;;;;;;;5095861;28;20473;-75
2022/08/13 13:53:51;;;;;;;5.20;4.70;;;;;;;;;;5095416;28;20020;-77
2022/08/13 13:56:17;;;;;;;8.95;4.63;;;;;;;;;;5064565;28;20035;-76
2022/08/13 13:58:43;;;;;;;5.97;4.85;;;;;;;;;;5079390;28;20159;-76
2022/08/13 14:01:08;;;;;;;7.00;4.97;;;;;;;;;;5076007;28;20146;-75
2022/08/13 14:03:34;;;;;;;6.43;4.78;;;;;;;;;;5095028;28;20023;-75
2022/08/13 14:06:01;;;;;;;5.85;4.55;;;;;;;;;;5095684;28;20082;-75
2022/08/13 14:08:28;;;;;;;6.85;4.68;;;;;;;;;;5095704;28;20115;-75
2022/08/13 14:10:54;;;;;;;7.53;4.70;;;;;;;;;;5095845;28;20025;-76
2022/08/13 14:13:20;;;;;;;6.03;4.57;;;;;;;;;;5095057;28;20051;-76
2022/08/13 14:15:45;;;;;;;7.40;5.15;;;;;;;;;;5095337;28;20038;-75
2022/08/13 14:18:15;;;;;;;5.55;4.95;;;;;;;;;;5077815;28;20032;-77
2022/08/13 14:20:43;;;;;;;5.68;5.07;;;;;;;;;;5070733;28;20023;-76
2022/08/13 14:23:10;;;;;;;5.05;4.53;;;;;;;;;;5077889;28;20055;-75
2022/08/13 14:25:37;;;;;;;6.50;5.05;;;;;;;;;;5089377;28;20081;-74
2022/08/13 14:28:04;;;;;;;5.80;5.22;;;;;;;;;;5094339;28;20115;-74
2022/08/13 14:30:29;;;;;;;6.45;4.97;;;;;;;;;;5074828;28;20078;-76
2022/08/13 14:32:55;;;;;;;5.55;4.95;;;;;;;;;;5075594;28;20024;-76
2022/08/13 14:35:20;;;;;;;7.25;5.30;;;;;;;;;;5075131;28;20032;-77
2022/08/13 14:37:47;;;;;;;5.18;4.68;;;;;;;;;;5074911;28;20473;-76
2022/08/13 14:40:18;;;;;;;6.68;4.60;;;;;;;;;;5074989;28;20059;-76
2022/08/13 14:42:47;;;;;;;9.38;4.80;;;;;;;;;;5075227;28;20024;-77
2022/08/13 14:48:00;;;;;;;7.32;4.97;;;;;;;;;;5075148;28;20046;-77
2022/08/13 14:50:29;;;;;;;6.10;5.35;;;;;;;;;;5057116;28;20548;-76
2022/08/13 14:52:56;;;;;;;10.57;5.30;;;;;;;;;;5074381;28;20032;-77
2022/08/13 14:55:22;;;;;;;10.48;5.15;;;;;;;;;;5075207;28;20385;-75
2022/08/13 14:57:49;;;;;;;7.45;5.13;;;;;;;;;;5074483;28;20042;-76
2022/08/13 15:00:16;;;;;;;5.85;4.88;;;;;;;;;;5074079;28;20408;-77
2022/08/13 15:02:41;;;;;;;6.60;4.90;;;;;;;;;;5074119;28;20020;-76
2022/08/13 15:05:09;;;;;;;9.00;4.72;;;;;;;;;;5074202;28;20105;-77
2022/08/13 15:07:35;;;;;;;8.07;4.40;;;;;;;;;;5074093;28;20111;-77
2022/08/13 15:10:00;;;;;;;7.03;5.00;;;;;;;;;;5074394;28;20091;-76
2022/08/13 15:12:30;;;;;;;5.72;4.78;;;;;;;;;;5073952;28;20028;-76